sensor_id;sensor_type;location;lat;lon;timestamp;pressure;altitude;pressure_sealevel;temperature;humidity
70254;BME280;57649;42.968;1.608;2023-03-03T00:01:39;97615.41;;;1.95;100.00
70254;BME280;57649;42.968;1.608;2023-03-03T00:04:05;97619.72;;;1.96;100.00
70254;BME280;57649;42.968;1.608;2023-03-03T00:06:30;97609.63;;;1.89;100.00
70254;BME280;57649;42.968;1.608;2023-03-03T00:08:56;97612.34;;;1.88;100.00
70254;BME280;57649;42.968;1.608;2023-03-03T00:11:22;97614.53;;;2.07;100.00
70254;BME280;57649;42.968;1.608;2023-03-03T00:13:50;97612.00;;;2.05;100.00
70254;BME280;57649;42.968;1.608;2023-03-03T00:18:49;97621.84;;;1.90;100.00
70254;BME280;57649;42.968;1.608;2023-03-03T00:23:44;97607.50;;;1.95;100.00
70254;BME280;57649;42.968;1.608;2023-03-03T00:26:37;97613.91;;;2.03;100.00
70254;BME280;57649;42.968;1.608;2023-03-03T00:31:57;97604.31;;;2.02;100.00
70254;BME280;57649;42.968;1.608;2023-03-03T00:34:28;97605.59;;;1.97;100.00
70254;BME280;57649;42.968;1.608;2023-03-03T00:36:56;97604.41;;;2.01;100.00
70254;BME280;57649;42.968;1.608;2023-03-03T00:39:45;97598.22;;;1.89;100.00
70254;BME280;57649;42.968;1.608;2023-03-03T00:42:13;97595.94;;;2.08;100.00
70254;BME280;57649;42.968;1.608;2023-03-03T00:44:46;97602.47;;;2.16;100.00
70254;BME280;57649;42.968;1.608;2023-03-03T00:50:16;97601.75;;;2.01;100.00
70254;BME280;57649;42.968;1.608;2023-03-03T00:52:44;97599.59;;;2.19;100.00
70254;BME280;57649;42.968;1.608;2023-03-03T00:55:11;97604.50;;;2.36;100.00
70254;BME280;57649;42.968;1.608;2023-03-03T00:57:36;97606.25;;;2.24;100.00
70254;BME280;57649;42.968;1.608;2023-03-03T01:03:22;97612.97;;;2.28;100.00
70254;BME280;57649;42.968;1.608;2023-03-03T01:05:49;97605.41;;;2.24;100.00
70254;BME280;57649;42.968;1.608;2023-03-03T01:08:15;97601.78;;;2.25;100.00
70254;BME280;57649;42.968;1.608;2023-03-03T01:10:56;97593.91;;;2.36;100.00
70254;BME280;57649;42.968;1.608;2023-03-03T01:13:25;97595.31;;;2.42;100.00
70254;BME280;57649;42.968;1.608;2023-03-03T01:15:51;97599.16;;;2.25;100.00
70254;BME280;57649;42.968;1.608;2023-03-03T01:18:17;97591.94;;;2.27;100.00
70254;BME280;57649;42.968;1.608;2023-03-03T01:20:43;97596.09;;;2.31;100.00
70254;BME280;57649;42.968;1.608;2023-03-03T01:23:09;97588.63;;;2.36;100.00
70254;BME280;57649;42.968;1.608;2023-03-03T01:25:34;97587.38;;;2.42;100.00
70254;BME280;57649;42.968;1.608;2023-03-03T01:28:00;97579.56;;;2.40;100.00
70254;BME280;57649;42.968;1.608;2023-03-03T01:30:26;97582.97;;;2.29;100.00
70254;BME280;57649;42.968;1.608;2023-03-03T01:32:52;97590.56;;;2.34;100.00
70254;BME280;57649;42.968;1.608;2023-03-03T01:35:17;97586.50;;;2.41;100.00
70254;BME280;57649;42.968;1.608;2023-03-03T01:37:43;97580.09;;;2.57;100.00
70254;BME280;57649;42.968;1.608;2023-03-03T01:40:15;97582.75;;;2.57;100.00
70254;BME280;57649;42.968;1.608;2023-03-03T01:42:41;97577.06;;;2.50;100.00
70254;BME280;57649;42.968;1.608;2023-03-03T01:45:17;97573.47;;;2.51;100.00
70254;BME280;57649;42.968;1.608;2023-03-03T01:47:59;97578.88;;;2.49;100.00
70254;BME280;57649;42.968;1.608;2023-03-03T01:50:59;97571.38;;;2.43;100.00
70254;BME280;57649;42.968;1.608;2023-03-03T01:53:56;97572.25;;;2.44;100.00
70254;BME280;57649;42.968;1.608;2023-03-03T01:56:23;97569.34;;;2.47;100.00
70254;BME280;57649;42.968;1.608;2023-03-03T01:59:17;97552.06;;;2.43;100.00
70254;BME280;57649;42.968;1.608;2023-03-03T02:01:44;97569.06;;;2.63;100.00
70254;BME280;57649;42.968;1.608;2023-03-03T02:04:11;97568.56;;;2.58;100.00
70254;BME280;57649;42.968;1.608;2023-03-03T02:06:39;97564.47;;;2.54;100.00
70254;BME280;57649;42.968;1.608;2023-03-03T02:12:22;97551.94;;;2.44;100.00
70254;BME280;57649;42.968;1.608;2023-03-03T02:14:50;97550.72;;;2.37;100.00
70254;BME280;57649;42.968;1.608;2023-03-03T02:17:15;97541.06;;;2.36;100.00
70254;BME280;57649;42.968;1.608;2023-03-03T02:22:42;97552.97;;;2.55;100.00
70254;BME280;57649;42.968;1.608;2023-03-03T02:25:15;97545.69;;;2.45;100.00
70254;BME280;57649;42.968;1.608;2023-03-03T02:27:42;97543.53;;;2.50;100.00
70254;BME280;57649;42.968;1.608;2023-03-03T02:30:14;97542.59;;;2.52;100.00
70254;BME280;57649;42.968;1.608;2023-03-03T02:32:40;97538.72;;;2.44;100.00
70254;BME280;57649;42.968;1.608;2023-03-03T02:35:27;97535.47;;;2.41;100.00
70254;BME280;57649;42.968;1.608;2023-03-03T02:37:55;97537.75;;;2.45;100.00
70254;BME280;57649;42.968;1.608;2023-03-03T02:40:24;97538.00;;;2.42;100.00
70254;BME280;57649;42.968;1.608;2023-03-03T02:42:52;97545.97;;;2.54;100.00
70254;BME280;57649;42.968;1.608;2023-03-03T02:45:20;97539.91;;;2.40;100.00
70254;BME280;57649;42.968;1.608;2023-03-03T02:47:49;97541.31;;;2.33;100.00
70254;BME280;57649;42.968;1.608;2023-03-03T02:50:15;97541.53;;;2.30;100.00
70254;BME280;57649;42.968;1.608;2023-03-03T02:52:41;97537.56;;;2.24;100.00
70254;BME280;57649;42.968;1.608;2023-03-03T02:55:07;97544.81;;;2.34;100.00
70254;BME280;57649;42.968;1.608;2023-03-03T02:57:32;97542.53;;;2.29;100.00
70254;BME280;57649;42.968;1.608;2023-03-03T02:59:58;97537.72;;;2.34;100.00
70254;BME280;57649;42.968;1.608;2023-03-03T03:02:23;97535.03;;;2.23;100.00
70254;BME280;57649;42.968;1.608;2023-03-03T03:04:48;97534.59;;;2.29;100.00
70254;BME280;57649;42.968;1.608;2023-03-03T03:07:14;97531.81;;;2.30;100.00
70254;BME280;57649;42.968;1.608;2023-03-03T03:09:39;97532.31;;;2.36;100.00
70254;BME280;57649;42.968;1.608;2023-03-03T03:12:05;97527.41;;;2.31;100.00
70254;BME280;57649;42.968;1.608;2023-03-03T03:14:30;97527.47;;;2.18;100.00
70254;BME280;57649;42.968;1.608;2023-03-03T03:16:56;97525.91;;;2.27;100.00
70254;BME280;57649;42.968;1.608;2023-03-03T03:19:21;97534.13;;;2.35;100.00
70254;BME280;57649;42.968;1.608;2023-03-03T03:21:46;97534.34;;;2.32;100.00
70254;BME280;57649;42.968;1.608;2023-03-03T03:24:12;97530.97;;;2.30;100.00
70254;BME280;57649;42.968;1.608;2023-03-03T03:26:37;97526.53;;;2.30;100.00
70254;BME280;57649;42.968;1.608;2023-03-03T03:29:02;97534.63;;;2.40;100.00
70254;BME280;57649;42.968;1.608;2023-03-03T03:31:28;97530.69;;;2.46;100.00
70254;BME280;57649;42.968;1.608;2023-03-03T03:33:53;97524.53;;;2.45;100.00
70254;BME280;57649;42.968;1.608;2023-03-03T03:36:19;97529.59;;;2.48;100.00
70254;BME280;57649;42.968;1.608;2023-03-03T03:38:44;97532.13;;;2.50;100.00
70254;BME280;57649;42.968;1.608;2023-03-03T03:41:11;97527.53;;;2.41;100.00
70254;BME280;57649;42.968;1.608;2023-03-03T03:43:36;97524.44;;;2.47;100.00
70254;BME280;57649;42.968;1.608;2023-03-03T03:46:02;97535.25;;;2.44;100.00
70254;BME280;57649;42.968;1.608;2023-03-03T03:48:27;97529.47;;;2.39;100.00
70254;BME280;57649;42.968;1.608;2023-03-03T03:50:53;97524.63;;;2.33;100.00
70254;BME280;57649;42.968;1.608;2023-03-03T03:53:18;97533.03;;;2.38;100.00
70254;BME280;57649;42.968;1.608;2023-03-03T03:55:44;97529.47;;;2.39;100.00
70254;BME280;57649;42.968;1.608;2023-03-03T03:58:14;97536.56;;;2.38;100.00
70254;BME280;57649;42.968;1.608;2023-03-03T04:00:41;97530.16;;;2.29;100.00
70254;BME280;57649;42.968;1.608;2023-03-03T04:03:08;97530.97;;;2.30;100.00
70254;BME280;57649;42.968;1.608;2023-03-03T04:05:33;97526.53;;;2.30;100.00
70254;BME280;57649;42.968;1.608;2023-03-03T04:07:59;97531.59;;;2.34;100.00
70254;BME280;57649;42.968;1.608;2023-03-03T04:10:24;97527.16;;;2.34;100.00
70254;BME280;57649;42.968;1.608;2023-03-03T04:12:50;97526.41;;;2.32;100.00
70254;BME280;57649;42.968;1.608;2023-03-03T04:15:15;97523.88;;;2.30;100.00
70254;BME280;57649;42.968;1.608;2023-03-03T04:17:41;97532.09;;;2.39;100.00
70254;BME280;57649;42.968;1.608;2023-03-03T04:20:07;97535.47;;;2.41;100.00
70254;BME280;57649;42.968;1.608;2023-03-03T04:22:33;97538.44;;;2.36;100.00
70254;BME280;57649;42.968;1.608;2023-03-03T04:25:00;97539.19;;;2.38;100.00
70254;BME280;57649;42.968;1.608;2023-03-03T04:27:32;97540.13;;;2.37;100.00
70254;BME280;57649;42.968;1.608;2023-03-03T04:29:57;97542.16;;;2.34;100.00
70254;BME280;57649;42.968;1.608;2023-03-03T04:32:23;97532.44;;;2.34;100.00
70254;BME280;57649;42.968;1.608;2023-03-03T04:34:49;97529.91;;;2.33;100.00
70254;BME280;57649;42.968;1.608;2023-03-03T04:37:14;97540.34;;;2.34;100.00
70254;BME280;57649;42.968;1.608;2023-03-03T04:39:40;97536.03;;;2.33;100.00
70254;BME280;57649;42.968;1.608;2023-03-03T04:42:05;97545.88;;;2.31;100.00
70254;BME280;57649;42.968;1.608;2023-03-03T04:44:31;97547.84;;;2.40;100.00
70254;BME280;57649;42.968;1.608;2023-03-03T04:46:56;97538.56;;;2.35;100.00
70254;BME280;57649;42.968;1.608;2023-03-03T04:49:21;97551.16;;;2.31;100.00
70254;BME280;57649;42.968;1.608;2023-03-03T04:51:47;97557.34;;;2.43;100.00
70254;BME280;57649;42.968;1.608;2023-03-03T04:54:12;97543.28;;;2.42;100.00
70254;BME280;57649;42.968;1.608;2023-03-03T04:56:38;97546.75;;;2.43;100.00
70254;BME280;57649;42.968;1.608;2023-03-03T04:59:03;97556.94;;;2.36;100.00
70254;BME280;57649;42.968;1.608;2023-03-03T05:01:28;97550.72;;;2.37;100.00
70254;BME280;57649;42.968;1.608;2023-03-03T05:03:54;97549.75;;;2.38;100.00
70254;BME280;57649;42.968;1.608;2023-03-03T05:06:19;97547.44;;;2.34;100.00
70254;BME280;57649;42.968;1.608;2023-03-03T05:08:45;97556.47;;;2.31;100.00
70254;BME280;57649;42.968;1.608;2023-03-03T05:11:10;97560.44;;;2.37;100.00
70254;BME280;57649;42.968;1.608;2023-03-03T05:13:36;97554.19;;;2.38;100.00
70254;BME280;57649;42.968;1.608;2023-03-03T05:16:02;97549.25;;;2.33;100.00
70254;BME280;57649;42.968;1.608;2023-03-03T05:18:27;97558.38;;;2.29;100.00
70254;BME280;57649;42.968;1.608;2023-03-03T05:20:53;97550.91;;;2.34;100.00
70254;BME280;57649;42.968;1.608;2023-03-03T05:23:19;97560.69;;;2.45;100.00
70254;BME280;57649;42.968;1.608;2023-03-03T05:25:49;97561.16;;;2.39;100.00
70254;BME280;57649;42.968;1.608;2023-03-03T05:28:15;97558.91;;;2.45;100.00
70254;BME280;57649;42.968;1.608;2023-03-03T05:30:41;97557.44;;;2.41;100.00
70254;BME280;57649;42.968;1.608;2023-03-03T05:33:07;97552.63;;;2.35;100.00
70254;BME280;57649;42.968;1.608;2023-03-03T05:35:33;97554.75;;;2.30;100.00
70254;BME280;57649;42.968;1.608;2023-03-03T05:37:58;97557.06;;;2.35;100.00
70254;BME280;57649;42.968;1.608;2023-03-03T05:40:24;97557.41;;;2.30;100.00
70254;BME280;57649;42.968;1.608;2023-03-03T05:42:50;97564.38;;;2.31;100.00
70254;BME280;57649;42.968;1.608;2023-03-03T05:45:16;97557.19;;;2.33;100.00
70254;BME280;57649;42.968;1.608;2023-03-03T05:47:45;97552.72;;;2.34;100.00
70254;BME280;57649;42.968;1.608;2023-03-03T05:50:10;97559.16;;;2.42;100.00
70254;BME280;57649;42.968;1.608;2023-03-03T05:52:36;97557.56;;;2.40;100.00
70254;BME280;57649;42.968;1.608;2023-03-03T05:55:02;97556.50;;;2.18;100.00
70254;BME280;57649;42.968;1.608;2023-03-03T05:57:27;97568.31;;;2.25;100.00
70254;BME280;57649;42.968;1.608;2023-03-03T05:59:53;97567.22;;;2.28;100.00
70254;BME280;57649;42.968;1.608;2023-03-03T06:02:18;97559.97;;;2.19;100.00
70254;BME280;57649;42.968;1.608;2023-03-03T06:04:44;97569.38;;;2.23;100.00
70254;BME280;57649;42.968;1.608;2023-03-03T06:07:09;97571.22;;;2.34;100.00
70254;BME280;57649;42.968;1.608;2023-03-03T06:09:35;97571.56;;;2.29;100.00
70254;BME280;57649;42.968;1.608;2023-03-03T06:12:01;97566.72;;;2.23;100.00
70254;BME280;57649;42.968;1.608;2023-03-03T06:14:26;97569.56;;;2.20;100.00
70254;BME280;57649;42.968;1.608;2023-03-03T06:16:51;97578.75;;;2.27;100.00
70254;BME280;57649;42.968;1.608;2023-03-03T06:19:17;97579.81;;;2.24;100.00
70254;BME280;57649;42.968;1.608;2023-03-03T06:21:42;97584.81;;;2.16;100.00
70254;BME280;57649;42.968;1.608;2023-03-03T06:24:08;97578.00;;;2.25;100.00
70254;BME280;57649;42.968;1.608;2023-03-03T06:26:33;97572.31;;;2.31;100.00
70254;BME280;57649;42.968;1.608;2023-03-03T06:28:59;97576.63;;;2.32;100.00
70254;BME280;57649;42.968;1.608;2023-03-03T06:31:26;97589.63;;;2.35;100.00
70254;BME280;57649;42.968;1.608;2023-03-03T06:33:52;97590.34;;;2.37;100.00
70254;BME280;57649;42.968;1.608;2023-03-03T06:36:17;97585.16;;;2.36;100.00
70254;BME280;57649;42.968;1.608;2023-03-03T06:38:43;97586.75;;;2.38;100.00
70254;BME280;57649;42.968;1.608;2023-03-03T06:41:09;97580.44;;;2.28;100.00
70254;BME280;57649;42.968;1.608;2023-03-03T06:43:35;97589.81;;;2.32;100.00
70254;BME280;57649;42.968;1.608;2023-03-03T06:46:02;97592.34;;;2.34;100.00
70254;BME280;57649;42.968;1.608;2023-03-03T06:48:28;97589.63;;;2.35;100.00
70254;BME280;57649;42.968;1.608;2023-03-03T06:50:54;97593.09;;;2.36;100.00
70254;BME280;57649;42.968;1.608;2023-03-03T06:53:19;97595.22;;;2.30;100.00
70254;BME280;57649;42.968;1.608;2023-03-03T06:55:44;97594.38;;;2.30;100.00
70254;BME280;57649;42.968;1.608;2023-03-03T06:58:18;97592.53;;;2.43;100.00
70254;BME280;57649;42.968;1.608;2023-03-03T07:00:56;97610.44;;;2.27;100.00
70254;BME280;57649;42.968;1.608;2023-03-03T07:03:23;97598.94;;;2.28;100.00
70254;BME280;57649;42.968;1.608;2023-03-03T07:05:50;97602.19;;;2.31;100.00
70254;BME280;57649;42.968;1.608;2023-03-03T07:08:21;97596.25;;;2.41;100.00
70254;BME280;57649;42.968;1.608;2023-03-03T07:10:48;97599.22;;;2.36;100.00
70254;BME280;57649;42.968;1.608;2023-03-03T07:13:26;97603.88;;;2.33;100.00
70254;BME280;57649;42.968;1.608;2023-03-03T07:15:53;97603.59;;;2.48;100.00
70254;BME280;57649;42.968;1.608;2023-03-03T07:20:47;97613.56;;;2.45;100.00
70254;BME280;57649;42.968;1.608;2023-03-03T07:23:37;97612.72;;;2.44;100.00
70254;BME280;57649;42.968;1.608;2023-03-03T07:26:15;97615.47;;;2.43;100.00
70254;BME280;57649;42.968;1.608;2023-03-03T07:28:43;97617.16;;;2.44;100.00
70254;BME280;57649;42.968;1.608;2023-03-03T07:31:38;97621.47;;;2.45;100.00
70254;BME280;57649;42.968;1.608;2023-03-03T07:34:39;97619.75;;;2.57;100.00
70254;BME280;57649;42.968;1.608;2023-03-03T07:37:34;97621.94;;;2.63;100.00
70254;BME280;57649;42.968;1.608;2023-03-03T07:40:00;97615.19;;;2.59;100.00
70254;BME280;57649;42.968;1.608;2023-03-03T07:42:40;97623.84;;;2.61;100.00
70254;BME280;57649;42.968;1.608;2023-03-03T07:47:50;97628.47;;;2.70;100.00
70254;BME280;57649;42.968;1.608;2023-03-03T07:50:18;97629.47;;;2.80;100.00
70254;BME280;57649;42.968;1.608;2023-03-03T07:52:56;97628.38;;;2.83;100.00
70254;BME280;57649;42.968;1.608;2023-03-03T07:57:53;97631.16;;;2.81;100.00
70254;BME280;57649;42.968;1.608;2023-03-03T08:02:56;97639.16;;;3.04;100.00
70254;BME280;57649;42.968;1.608;2023-03-03T08:05:41;97642.88;;;3.01;100.00
70254;BME280;57649;42.968;1.608;2023-03-03T08:10:38;97641.56;;;3.07;100.00
70254;BME280;57649;42.968;1.608;2023-03-03T08:13:36;97640.13;;;3.03;100.00
70254;BME280;57649;42.968;1.608;2023-03-03T08:21:23;97648.81;;;3.16;100.00
70254;BME280;57649;42.968;1.608;2023-03-03T08:23:50;97650.16;;;3.22;100.00
70254;BME280;57649;42.968;1.608;2023-03-03T08:26:18;97648.09;;;3.14;100.00
70254;BME280;57649;42.968;1.608;2023-03-03T08:28:44;97655.63;;;3.43;100.00
70254;BME280;57649;42.968;1.608;2023-03-03T08:31:10;97652.88;;;3.56;100.00
70254;BME280;57649;42.968;1.608;2023-03-03T08:33:35;97653.25;;;3.62;100.00
70254;BME280;57649;42.968;1.608;2023-03-03T08:36:01;97664.22;;;3.80;100.00
70254;BME280;57649;42.968;1.608;2023-03-03T08:38:27;97654.44;;;3.81;100.00
70254;BME280;57649;42.968;1.608;2023-03-03T08:40:52;97649.53;;;3.65;100.00
70254;BME280;57649;42.968;1.608;2023-03-03T08:43:18;97651.47;;;3.74;100.00
70254;BME280;57649;42.968;1.608;2023-03-03T08:45:50;97650.13;;;3.80;100.00
70254;BME280;57649;42.968;1.608;2023-03-03T08:48:15;97648.59;;;3.89;100.00
70254;BME280;57649;42.968;1.608;2023-03-03T08:50:42;97647.16;;;3.96;100.00
70254;BME280;57649;42.968;1.608;2023-03-03T08:53:08;97638.22;;;3.85;100.00
70254;BME280;57649;42.968;1.608;2023-03-03T08:55:33;97640.25;;;4.04;100.00
70254;BME280;57649;42.968;1.608;2023-03-03T08:57:59;97637.84;;;4.24;100.00
70254;BME280;57649;42.968;1.608;2023-03-03T09:00:24;97643.59;;;4.40;99.14
70254;BME280;57649;42.968;1.608;2023-03-03T09:02:51;97637.56;;;4.38;99.94
70254;BME280;57649;42.968;1.608;2023-03-03T09:05:18;97645.72;;;4.47;99.88
70254;BME280;57649;42.968;1.608;2023-03-03T09:07:44;97635.50;;;4.53;99.27
70254;BME280;57649;42.968;1.608;2023-03-03T09:10:13;97645.47;;;4.61;96.08
70254;BME280;57649;42.968;1.608;2023-03-03T09:12:41;97644.19;;;4.44;92.96
70254;BME280;57649;42.968;1.608;2023-03-03T09:15:28;97650.44;;;4.54;95.04
70254;BME280;57649;42.968;1.608;2023-03-03T09:18:15;97647.13;;;4.73;95.58
70254;BME280;57649;42.968;1.608;2023-03-03T09:23:42;97642.19;;;5.01;93.08
70254;BME280;57649;42.968;1.608;2023-03-03T09:26:30;97649.25;;;5.12;91.98
70254;BME280;57649;42.968;1.608;2023-03-03T09:31:42;97647.72;;;5.09;92.93
70254;BME280;57649;42.968;1.608;2023-03-03T09:34:20;97641.44;;;5.10;93.00
70254;BME280;57649;42.968;1.608;2023-03-03T09:36:47;97640.59;;;5.31;97.51
70254;BME280;57649;42.968;1.608;2023-03-03T09:39:20;97646.56;;;5.23;92.94
70254;BME280;57649;42.968;1.608;2023-03-03T09:53:18;97641.69;;;5.49;93.32
70254;BME280;57649;42.968;1.608;2023-03-03T09:56:09;97644.50;;;5.48;92.95
70254;BME280;57649;42.968;1.608;2023-03-03T09:59:06;97643.44;;;5.39;91.17
70254;BME280;57649;42.968;1.608;2023-03-03T10:04:43;97643.44;;;5.60;89.97
70254;BME280;57649;42.968;1.608;2023-03-03T10:09:59;97646.88;;;5.51;90.29
70254;BME280;57649;42.968;1.608;2023-03-03T10:12:37;97649.06;;;5.46;88.96
70254;BME280;57649;42.968;1.608;2023-03-03T10:15:38;97647.56;;;5.53;89.43
70254;BME280;57649;42.968;1.608;2023-03-03T10:21:16;97655.31;;;5.35;86.85
70254;BME280;57649;42.968;1.608;2023-03-03T10:26:47;97645.72;;;5.65;85.20
70254;BME280;57649;42.968;1.608;2023-03-03T10:32:39;97655.09;;;5.69;85.54
70254;BME280;57649;42.968;1.608;2023-03-03T10:48:50;97643.91;;;6.27;79.14
70254;BME280;57649;42.968;1.608;2023-03-03T10:51:29;97638.94;;;6.63;75.98
70254;BME280;57649;42.968;1.608;2023-03-03T11:00:23;97631.91;;;6.32;78.69
70254;BME280;57649;42.968;1.608;2023-03-03T11:17:03;97621.75;;;6.86;76.29
70254;BME280;57649;42.968;1.608;2023-03-03T11:20:03;97624.97;;;7.09;76.81
70254;BME280;57649;42.968;1.608;2023-03-03T11:25:26;97628.13;;;6.35;75.97
70254;BME280;57649;42.968;1.608;2023-03-03T11:36:38;97627.22;;;6.15;79.22
70254;BME280;57649;42.968;1.608;2023-03-03T11:39:06;97628.34;;;6.22;77.36
70254;BME280;57649;42.968;1.608;2023-03-03T11:44:44;97618.63;;;6.02;78.26
70254;BME280;57649;42.968;1.608;2023-03-03T11:47:25;97622.44;;;6.09;76.84
70254;BME280;57649;42.968;1.608;2023-03-03T11:49:59;97623.41;;;6.08;75.84
70254;BME280;57649;42.968;1.608;2023-03-03T11:58:10;97608.72;;;6.13;72.21
70254;BME280;57649;42.968;1.608;2023-03-03T12:03:15;97602.22;;;6.37;71.64
70254;BME280;57649;42.968;1.608;2023-03-03T12:05:54;97596.25;;;6.54;72.99
70254;BME280;57649;42.968;1.608;2023-03-03T12:16:57;97582.09;;;7.22;71.04
70254;BME280;57649;42.968;1.608;2023-03-03T12:25:13;97574.28;;;6.82;72.20
70254;BME280;57649;42.968;1.608;2023-03-03T12:27:49;97575.09;;;6.92;72.37
70254;BME280;57649;42.968;1.608;2023-03-03T12:43:54;97557.91;;;6.96;71.21
70254;BME280;57649;42.968;1.608;2023-03-03T12:49:03;97555.34;;;6.85;70.46
70254;BME280;57649;42.968;1.608;2023-03-03T12:56:54;97534.81;;;7.34;70.46
70254;BME280;57649;42.968;1.608;2023-03-03T13:10:47;97530.97;;;7.09;67.80
70254;BME280;57649;42.968;1.608;2023-03-03T13:13:39;97534.91;;;6.95;66.90
70254;BME280;57649;42.968;1.608;2023-03-03T13:16:11;97536.56;;;7.25;66.59
70254;BME280;57649;42.968;1.608;2023-03-03T13:18:56;97528.34;;;7.46;67.85
70254;BME280;57649;42.968;1.608;2023-03-03T13:21:39;97533.38;;;7.49;67.74
70254;BME280;57649;42.968;1.608;2023-03-03T13:27:06;97528.53;;;7.35;66.60
70254;BME280;57649;42.968;1.608;2023-03-03T13:32:18;97528.28;;;7.56;68.26
70254;BME280;57649;42.968;1.608;2023-03-03T13:35:08;97526.91;;;7.52;66.85
70254;BME280;57649;42.968;1.608;2023-03-03T13:37:41;97534.28;;;7.30;69.86
70254;BME280;57649;42.968;1.608;2023-03-03T13:40:16;97536.56;;;7.16;69.01
70254;BME280;57649;42.968;1.608;2023-03-03T13:42:49;97539.09;;;7.07;69.76
70254;BME280;57649;42.968;1.608;2023-03-03T13:45:24;97543.31;;;7.00;68.56
70254;BME280;57649;42.968;1.608;2023-03-03T13:48:41;97541.19;;;7.13;69.83
70254;BME280;57649;42.968;1.608;2023-03-03T13:50:55;97544.69;;;7.14;69.21
70254;BME280;57649;42.968;1.608;2023-03-03T14:04:34;97541.84;;;7.35;66.54
70254;BME280;57649;42.968;1.608;2023-03-03T14:12:37;97543.22;;;7.39;65.83
70254;BME280;57649;42.968;1.608;2023-03-03T14:20:23;97535.38;;;7.47;68.85
70254;BME280;57649;42.968;1.608;2023-03-03T14:28:41;97540.78;;;7.93;66.39
70254;BME280;57649;42.968;1.608;2023-03-03T14:31:23;97537.41;;;7.91;64.17
70254;BME280;57649;42.968;1.608;2023-03-03T14:36:47;97550.56;;;7.65;66.46
70254;BME280;57649;42.968;1.608;2023-03-03T14:39:37;97545.84;;;7.59;66.59
70254;BME280;57649;42.968;1.608;2023-03-03T14:42:14;97547.16;;;7.35;66.70
70254;BME280;57649;42.968;1.608;2023-03-03T14:44:53;97545.47;;;7.34;66.61
70254;BME280;57649;42.968;1.608;2023-03-03T14:49:46;97549.38;;;7.49;65.59
70254;BME280;57649;42.968;1.608;2023-03-03T14:54:44;97544.59;;;7.43;65.43
70254;BME280;57649;42.968;1.608;2023-03-03T15:00:27;97551.53;;;7.26;64.78
70254;BME280;57649;42.968;1.608;2023-03-03T15:03:17;97546.19;;;7.26;66.89
70254;BME280;57649;42.968;1.608;2023-03-03T15:05:50;97552.97;;;7.11;65.96
70254;BME280;57649;42.968;1.608;2023-03-03T15:08:23;97548.72;;;7.28;66.94
70254;BME280;57649;42.968;1.608;2023-03-03T15:10:51;97553.47;;;7.44;67.15
70254;BME280;57649;42.968;1.608;2023-03-03T15:15:51;97554.19;;;7.26;66.22
70254;BME280;57649;42.968;1.608;2023-03-03T15:18:29;97552.81;;;7.22;66.36
70254;BME280;57649;42.968;1.608;2023-03-03T15:21:12;97551.41;;;7.18;64.91
70254;BME280;57649;42.968;1.608;2023-03-03T15:23:57;97560.81;;;7.12;65.97
70254;BME280;57649;42.968;1.608;2023-03-03T15:26:46;97547.91;;;7.08;65.86
70254;BME280;57649;42.968;1.608;2023-03-03T15:29:23;97550.31;;;7.11;65.65
70254;BME280;57649;42.968;1.608;2023-03-03T15:34:53;97548.16;;;7.24;65.54
70254;BME280;57649;42.968;1.608;2023-03-03T15:40:27;97549.44;;;7.20;66.84
70254;BME280;57649;42.968;1.608;2023-03-03T15:45:34;97559.34;;;7.38;66.44
70254;BME280;57649;42.968;1.608;2023-03-03T15:50:57;97547.34;;;7.24;65.69
70254;BME280;57649;42.968;1.608;2023-03-03T16:04:08;97552.81;;;7.22;64.65
70254;BME280;57649;42.968;1.608;2023-03-03T16:09:19;97549.56;;;7.38;65.64
70254;BME280;57649;42.968;1.608;2023-03-03T16:20:34;97543.84;;;7.13;65.87
70254;BME280;57649;42.968;1.608;2023-03-03T16:28:22;97547.63;;;7.01;67.15
70254;BME280;57649;42.968;1.608;2023-03-03T16:31:03;97546.81;;;6.91;67.52
70254;BME280;57649;42.968;1.608;2023-03-03T16:38:57;97556.63;;;6.81;67.39
70254;BME280;57649;42.968;1.608;2023-03-03T16:41:45;97551.00;;;6.74;66.88
70254;BME280;57649;42.968;1.608;2023-03-03T16:53:04;97553.41;;;6.48;67.69
70254;BME280;57649;42.968;1.608;2023-03-03T17:04:39;97552.91;;;6.13;70.43
70254;BME280;57649;42.968;1.608;2023-03-03T17:13:13;97559.25;;;6.22;69.95
70254;BME280;57649;42.968;1.608;2023-03-03T17:16:04;97567.19;;;6.03;72.20
70254;BME280;57649;42.968;1.608;2023-03-03T17:24:42;97578.63;;;5.72;74.20
70254;BME280;57649;42.968;1.608;2023-03-03T17:30:09;97586.91;;;5.48;76.50
70254;BME280;57649;42.968;1.608;2023-03-03T17:40:46;97604.66;;;5.78;70.15
70254;BME280;57649;42.968;1.608;2023-03-03T17:43:27;97606.75;;;5.75;70.69
70254;BME280;57649;42.968;1.608;2023-03-03T17:45:59;97612.50;;;5.80;72.32
70254;BME280;57649;42.968;1.608;2023-03-03T17:59:01;97624.91;;;5.70;72.09
70254;BME280;57649;42.968;1.608;2023-03-03T18:02:15;97620.31;;;5.72;73.41
70254;BME280;57649;42.968;1.608;2023-03-03T18:13:51;97642.44;;;5.51;74.18
70254;BME280;57649;42.968;1.608;2023-03-03T18:22:18;97648.44;;;4.79;77.19
70254;BME280;57649;42.968;1.608;2023-03-03T18:30:17;97666.22;;;4.44;80.47
70254;BME280;57649;42.968;1.608;2023-03-03T18:33:07;97660.09;;;4.44;79.23
70254;BME280;57649;42.968;1.608;2023-03-03T18:35:36;97679.25;;;4.48;79.82
70254;BME280;57649;42.968;1.608;2023-03-03T18:41:10;97685.63;;;4.45;79.48
70254;BME280;57649;42.968;1.608;2023-03-03T18:46:08;97689.78;;;4.70;78.49
70254;BME280;57649;42.968;1.608;2023-03-03T18:48:48;97684.47;;;4.81;77.56
70254;BME280;57649;42.968;1.608;2023-03-03T18:54:00;97694.41;;;4.57;80.37
70254;BME280;57649;42.968;1.608;2023-03-03T19:04:42;97703.34;;;4.33;82.54
70254;BME280;57649;42.968;1.608;2023-03-03T19:07:18;97708.44;;;4.25;83.58
70254;BME280;57649;42.968;1.608;2023-03-03T19:13:34;97718.28;;;4.12;84.16
70254;BME280;57649;42.968;1.608;2023-03-03T19:15:54;97721.44;;;4.17;84.95
70254;BME280;57649;42.968;1.608;2023-03-03T19:18:23;97716.13;;;4.17;84.74
70254;BME280;57649;42.968;1.608;2023-03-03T19:26:38;97732.75;;;4.41;82.01
70254;BME280;57649;42.968;1.608;2023-03-03T19:40:30;97743.59;;;4.38;85.09